createdAt,value
2018-08-17T00:01:54.220Z,7.18
2018-08-17T00:04:24.906Z,5.08
2018-08-17T00:06:55.777Z,5.47
2018-08-17T00:09:27.389Z,5.18
2018-08-17T00:11:58.360Z,3.58
2018-08-17T00:14:29.099Z,7.03
2018-08-17T00:16:58.957Z,4.30
2018-08-17T00:19:29.934Z,5.95
2018-08-17T00:22:00.753Z,4.40
2018-08-17T00:24:32.137Z,4.48
2018-08-17T00:27:03.048Z,3.75
2018-08-17T00:29:34.285Z,5.10
2018-08-17T00:32:04.363Z,5.40
2018-08-17T00:34:35.044Z,4.12
2018-08-17T00:37:05.896Z,4.60
2018-08-17T00:39:36.754Z,6.05
2018-08-17T00:42:08.268Z,5.16
2018-08-17T00:44:38.976Z,4.53
2018-08-17T00:47:10.176Z,7.33
2018-08-17T00:49:40.923Z,4.30
2018-08-17T00:52:11.829Z,4.60
2018-08-17T00:54:43.065Z,5.76
2018-08-17T00:57:14.071Z,8.05
2018-08-17T00:59:44.835Z,4.08
2018-08-17T01:02:15.757Z,4.03
2018-08-17T01:04:47.025Z,8.10
2018-08-17T01:07:18.010Z,5.78
2018-08-17T01:09:48.916Z,3.85
2018-08-17T01:12:19.906Z,9.25
2018-08-17T01:14:50.907Z,5.30
2018-08-17T01:17:22.008Z,5.08
2018-08-17T01:19:56.297Z,4.78
2018-08-17T01:22:26.165Z,4.40
2018-08-17T01:24:56.062Z,4.08
2018-08-17T01:27:25.913Z,7.03
2018-08-17T01:29:56.772Z,9.80
2018-08-17T01:32:28.554Z,10.70
2018-08-17T01:34:59.265Z,7.20
2018-08-17T01:37:29.941Z,9.88
2018-08-17T01:40:00.800Z,6.10
2018-08-17T01:42:31.685Z,7.00
2018-08-17T01:45:03.181Z,5.18
2018-08-17T01:47:35.025Z,5.82
2018-08-17T01:50:05.092Z,5.87
2018-08-17T01:52:35.886Z,5.20
2018-08-17T01:55:08.822Z,5.12
2018-08-17T01:57:38.660Z,3.83
2018-08-17T02:00:11.695Z,6.76
2018-08-17T02:02:42.675Z,4.50
2018-08-17T02:05:12.840Z,3.40
2018-08-17T02:07:42.633Z,4.57
2018-08-17T02:10:13.673Z,4.18
2018-08-17T02:12:44.024Z,4.44
2018-08-17T02:15:14.962Z,5.85
2018-08-17T02:17:45.781Z,5.55
2018-08-17T02:20:16.993Z,4.20
2018-08-17T02:22:52.124Z,4.35
2018-08-17T02:25:22.210Z,5.70
2018-08-17T02:27:52.068Z,6.10
2018-08-17T02:30:21.858Z,8.05
2018-08-17T02:32:51.780Z,6.00
2018-08-17T02:35:23.045Z,6.98
2018-08-17T02:37:54.037Z,9.55
2018-08-17T02:40:25.133Z,6.65
2018-08-17T02:42:56.139Z,6.92
2018-08-17T02:45:26.964Z,7.17
2018-08-17T02:47:57.892Z,6.17
2018-08-17T02:50:28.757Z,4.65
2018-08-17T02:52:59.755Z,5.65
2018-08-17T02:55:31.275Z,6.74
2018-08-17T02:58:02.064Z,4.70
2018-08-17T03:00:32.934Z,5.97
2018-08-17T03:03:04.036Z,4.65
2018-08-17T03:05:34.893Z,5.83
2018-08-17T03:08:05.886Z,4.92
2018-08-17T03:10:36.766Z,7.67
2018-08-17T03:13:08.506Z,5.24
2018-08-17T03:15:39.045Z,4.33
2018-08-17T03:18:10.939Z,3.80
2018-08-17T03:20:42.373Z,6.38
2018-08-17T03:23:12.751Z,5.50
2018-08-17T03:25:43.290Z,5.12
2018-08-17T03:28:14.037Z,7.37
2018-08-17T03:30:44.861Z,5.37
2018-08-17T03:33:15.872Z,5.83
2018-08-17T03:35:46.814Z,8.15
2018-08-17T03:38:17.781Z,8.43
2018-08-17T03:40:49.050Z,6.60
2018-08-17T03:43:19.897Z,5.65
2018-08-17T03:45:50.703Z,5.90
2018-08-17T03:48:22.160Z,8.68
2018-08-17T03:50:52.956Z,5.08
2018-08-17T03:53:23.865Z,6.40
2018-08-17T03:55:54.684Z,7.37
2018-08-17T03:58:26.160Z,6.62
2018-08-17T04:00:57.144Z,6.12
2018-08-17T04:03:27.992Z,6.33
2018-08-17T04:05:58.849Z,7.30
2018-08-17T04:08:29.844Z,6.15
2018-08-17T04:11:01.088Z,5.72
2018-08-17T04:13:32.038Z,5.22
2018-08-17T04:16:02.881Z,5.62
2018-08-17T04:18:34.159Z,5.42
2018-08-17T04:21:04.986Z,5.12
2018-08-17T04:23:35.995Z,7.45
2018-08-17T04:26:06.906Z,9.50
2018-08-17T04:28:37.820Z,7.30
2018-08-17T04:31:08.745Z,4.90
2018-08-17T04:33:40.141Z,5.36
2018-08-17T04:36:11.006Z,5.55
2018-08-17T04:38:41.917Z,9.50
2018-08-17T04:41:12.863Z,7.90
2018-08-17T04:43:43.847Z,7.85
2018-08-17T04:46:15.625Z,8.10
2018-08-17T04:48:46.251Z,6.76
2018-08-17T04:51:17.048Z,7.05
2018-08-17T04:53:47.960Z,10.28
2018-08-17T04:56:18.777Z,7.78
2018-08-17T04:58:49.769Z,7.85
2018-08-17T05:01:21.225Z,10.92
2018-08-17T05:03:52.198Z,8.75
2018-08-17T05:06:22.921Z,9.58
2018-08-17T05:08:53.839Z,7.60
2018-08-17T05:11:24.811Z,8.43
2018-08-17T05:13:56.088Z,10.26
2018-08-17T05:16:27.131Z,7.45
2018-08-17T05:18:57.945Z,10.80
2018-08-17T05:21:28.750Z,10.55
2018-08-17T05:24:00.109Z,10.56
2018-08-17T05:26:30.850Z,9.28
2018-08-17T05:29:01.821Z,12.78
2018-08-17T05:31:33.057Z,13.43
2018-08-17T05:34:04.103Z,12.15
2018-08-17T05:36:35.054Z,9.85
2018-08-17T05:39:06.998Z,11.35
2018-08-17T05:41:36.756Z,9.77
2018-08-17T05:44:08.181Z,11.30
2018-08-17T05:46:39.122Z,9.58
2018-08-17T05:49:10.165Z,15.95
2018-08-17T05:51:40.930Z,14.60
2018-08-17T05:54:11.824Z,11.95
2018-08-17T05:56:43.119Z,11.90
2018-08-17T05:59:14.012Z,14.43
2018-08-17T06:01:51.396Z,17.42
2018-08-17T06:04:21.961Z,12.40
2018-08-17T06:06:51.736Z,10.17
2018-08-17T06:09:21.541Z,12.43
2018-08-17T06:11:51.526Z,15.65
2018-08-17T06:14:21.389Z,15.90
2018-08-17T06:16:51.406Z,13.40
2018-08-17T06:19:22.632Z,15.20
2018-08-17T06:21:53.217Z,13.17
2018-08-17T06:24:24.010Z,10.98
2018-08-17T06:26:54.925Z,12.47
2018-08-17T06:29:25.849Z,11.65
2018-08-17T06:31:57.454Z,13.60
2018-08-17T06:34:27.999Z,11.10
2018-08-17T06:36:59.041Z,13.13
2018-08-17T06:39:29.863Z,10.78
2018-08-17T06:42:01.181Z,11.20
2018-08-17T06:44:31.974Z,11.85
2018-08-17T06:47:02.918Z,11.50
2018-08-17T06:49:34.053Z,18.45
2018-08-17T06:52:05.364Z,12.43
2018-08-17T06:54:35.897Z,10.13
2018-08-17T06:57:07.026Z,9.80
2018-08-17T06:59:37.827Z,16.02
2018-08-17T07:02:08.992Z,9.88
2018-08-17T07:04:39.921Z,10.05
2018-08-17T07:07:10.810Z,14.10
2018-08-17T07:09:42.046Z,12.46
2018-08-17T07:12:13.093Z,10.93
2018-08-17T07:14:43.848Z,10.32
2018-08-17T07:17:14.938Z,11.45
2018-08-17T07:19:45.713Z,10.03
2018-08-17T07:22:17.209Z,10.78
2018-08-17T07:24:48.000Z,11.20
2018-08-17T07:27:19.034Z,10.60
2018-08-17T07:29:49.938Z,8.23
2018-08-17T07:32:20.875Z,10.05
2018-08-17T07:34:51.832Z,9.63
2018-08-17T07:37:21.769Z,13.15
2018-08-17T07:39:53.029Z,9.02
2018-08-17T07:42:24.235Z,9.08
2018-08-17T07:44:55.111Z,8.40
2018-08-17T07:47:26.075Z,10.63
2018-08-17T07:49:57.009Z,13.10
2018-08-17T07:52:27.987Z,10.00
2018-08-17T07:54:58.873Z,13.05
2018-08-17T07:57:29.826Z,9.10
2018-08-17T08:00:01.066Z,9.88
2018-08-17T08:02:32.153Z,12.98
2018-08-17T08:05:03.081Z,10.40
2018-08-17T08:07:34.022Z,7.85
2018-08-17T08:10:05.040Z,6.20
2018-08-17T08:12:36.050Z,6.25
2018-08-17T08:15:07.539Z,6.45
2018-08-17T08:17:40.796Z,9.74
2018-08-17T08:20:21.224Z,10.43
2018-08-17T08:23:28.872Z,7.58
2018-08-17T08:25:59.453Z,12.50
2018-08-17T08:28:29.797Z,9.20
2018-08-17T08:30:59.761Z,6.17
2018-08-17T08:33:29.528Z,4.60
2018-08-17T08:35:59.466Z,8.00
2018-08-17T08:38:29.453Z,5.30
2018-08-17T08:40:59.238Z,8.80
2018-08-17T08:43:29.017Z,8.07
2018-08-17T08:45:59.109Z,8.10
2018-08-17T08:48:29.151Z,7.37
2018-08-17T08:50:59.194Z,4.70
2018-08-17T08:53:28.991Z,8.90
2018-08-17T08:55:59.213Z,5.83
2018-08-17T08:58:30.086Z,6.93
2018-08-17T09:01:01.101Z,5.33
2018-08-17T09:03:30.966Z,6.73
2018-08-17T09:06:00.978Z,4.93
2018-08-17T09:08:31.041Z,8.57
2018-08-17T09:11:01.036Z,6.73
2018-08-17T09:13:31.007Z,6.37
2018-08-17T09:16:01.044Z,4.83
2018-08-17T09:18:31.248Z,10.00
2018-08-17T09:21:01.264Z,10.30
2018-08-17T09:23:31.124Z,5.67
2018-08-17T09:26:01.076Z,5.03
2018-08-17T09:28:31.122Z,4.70
2018-08-17T09:31:01.068Z,7.07
2018-08-17T09:33:31.354Z,4.67
2018-08-17T09:36:01.196Z,3.20
2018-08-17T09:38:31.479Z,5.53
2018-08-17T09:41:01.300Z,2.67
2018-08-17T09:43:31.081Z,3.30
2018-08-17T09:46:01.024Z,2.77
2018-08-17T09:48:31.103Z,3.40
2018-08-17T09:51:01.622Z,5.37
2018-08-17T09:53:31.452Z,4.23
2018-08-17T09:56:01.837Z,2.47
2018-08-17T09:58:31.989Z,3.27
2018-08-17T10:01:07.000Z,3.10
2018-08-17T10:03:42.231Z,3.80
2018-08-17T10:06:17.281Z,5.37
2018-08-17T10:08:52.076Z,3.23
2018-08-17T10:11:22.021Z,4.40
2018-08-17T10:13:52.005Z,6.90
2018-08-17T10:16:22.229Z,6.00
2018-08-17T10:18:52.517Z,9.33
2018-08-17T10:21:22.456Z,3.43
2018-08-17T10:23:52.325Z,4.20
2018-08-17T10:26:22.282Z,6.37
2018-08-17T10:28:52.105Z,3.87
2018-08-17T10:31:22.385Z,5.70
2018-08-17T10:33:52.634Z,4.57
2018-08-17T10:36:22.479Z,4.00
2018-08-17T10:38:52.317Z,4.83
2018-08-17T10:41:22.364Z,2.70
2018-08-17T10:43:52.811Z,4.93
2018-08-17T10:46:22.912Z,5.30
2018-08-17T10:48:53.384Z,1.90
2018-08-17T10:51:23.805Z,3.98
2018-08-17T10:53:53.813Z,3.60
2018-08-17T10:56:23.966Z,2.25
2018-08-17T10:58:53.845Z,3.83
2018-08-17T11:01:23.798Z,2.43
2018-08-17T11:03:53.777Z,4.53
2018-08-17T11:06:23.696Z,2.97
2018-08-17T11:08:53.559Z,5.23
2018-08-17T11:11:23.326Z,2.10
2018-08-17T11:13:54.197Z,2.25
2018-08-17T11:16:24.117Z,5.15
2018-08-17T11:18:54.593Z,3.33
2018-08-17T11:21:24.927Z,3.67
2018-08-17T11:24:02.870Z,6.10
2018-08-17T11:26:39.192Z,5.20
2018-08-17T11:29:09.466Z,5.13
2018-08-17T11:31:39.650Z,2.00
2018-08-17T11:34:10.249Z,3.87
2018-08-17T11:36:40.036Z,2.27
2018-08-17T11:39:10.362Z,3.02
2018-08-17T11:41:40.641Z,2.17
2018-08-17T11:44:14.360Z,4.70
2018-08-17T11:46:44.647Z,2.13
2018-08-17T11:49:14.746Z,2.20
2018-08-17T11:51:45.021Z,3.60
2018-08-17T11:54:14.925Z,2.47
2018-08-17T11:56:45.447Z,3.75
2018-08-17T11:59:15.467Z,3.90
2018-08-17T12:01:45.485Z,3.20
2018-08-17T12:04:15.455Z,4.07
2018-08-17T12:06:45.529Z,2.20
2018-08-17T12:09:15.389Z,3.40
2018-08-17T12:11:45.323Z,2.95
2018-08-17T12:14:15.323Z,2.77
2018-08-17T12:16:45.981Z,2.40
2018-08-17T12:19:16.371Z,3.58
2018-08-17T12:21:46.290Z,2.43
2018-08-17T12:24:16.355Z,3.90
2018-08-17T12:26:51.450Z,2.07
2018-08-17T12:29:21.404Z,2.50
2018-08-17T12:31:51.370Z,3.98
2018-08-17T12:34:21.320Z,2.20
2018-08-17T12:36:51.275Z,2.67
2018-08-17T12:39:21.902Z,1.70
2018-08-17T12:41:51.739Z,4.13
2018-08-17T12:44:22.158Z,4.06
2018-08-17T12:46:52.991Z,3.85
2018-08-17T12:49:23.781Z,2.20
2018-08-17T12:51:54.893Z,4.70
2018-08-17T12:54:30.493Z,2.42
2018-08-17T12:57:02.149Z,2.00
2018-08-17T12:59:32.522Z,4.22
2018-08-17T13:02:02.922Z,1.92
2018-08-17T13:04:32.943Z,2.97
2018-08-17T13:07:02.781Z,2.50
2018-08-17T13:09:32.613Z,3.40
2018-08-17T13:12:03.047Z,3.30
2018-08-17T13:14:33.031Z,3.60
2018-08-17T13:17:03.828Z,2.70
2018-08-17T13:19:34.934Z,2.95
2018-08-17T13:22:05.902Z,8.95
2018-08-17T13:24:37.053Z,16.73
2018-08-17T13:27:07.859Z,2.67
2018-08-17T13:29:38.998Z,3.05
2018-08-17T13:32:09.677Z,2.10
2018-08-17T13:34:39.719Z,2.20
2018-08-17T13:37:10.745Z,1.82
2018-08-17T13:39:42.420Z,2.28
2018-08-17T13:42:13.251Z,5.40
2018-08-17T13:44:44.147Z,3.10
2018-08-17T13:47:14.988Z,2.25
2018-08-17T13:49:46.085Z,2.27
2018-08-17T13:52:16.968Z,2.15
2018-08-17T13:54:48.399Z,2.67
2018-08-17T13:57:18.952Z,3.35
2018-08-17T13:59:50.161Z,2.58
2018-08-17T14:02:21.426Z,2.37
2018-08-17T14:04:52.198Z,3.05
2018-08-17T14:07:23.113Z,2.08
2018-08-17T14:09:54.288Z,2.00
2018-08-17T14:12:25.123Z,2.55
2018-08-17T14:14:56.150Z,1.98
2018-08-17T14:17:27.143Z,2.27
2018-08-17T14:19:58.078Z,1.72
2018-08-17T14:22:28.880Z,2.30
2018-08-17T14:24:59.896Z,3.22
2018-08-17T14:27:30.783Z,4.40
2018-08-17T14:30:01.877Z,1.87
2018-08-17T14:32:32.846Z,7.53
2018-08-17T14:35:03.848Z,1.70
2018-08-17T14:37:34.875Z,4.72
2018-08-17T14:40:06.522Z,2.02
2018-08-17T14:42:37.160Z,2.62
2018-08-17T14:45:09.210Z,2.12
2018-08-17T14:47:39.878Z,3.10
2018-08-17T14:50:13.585Z,4.72
2018-08-17T14:52:44.110Z,1.80
2018-08-17T14:55:14.076Z,1.87
2018-08-17T14:57:43.982Z,4.00
2018-08-17T15:00:15.279Z,7.03
2018-08-17T15:02:45.377Z,2.43
2018-08-17T15:05:16.689Z,4.85
2018-08-17T15:07:46.753Z,4.30
2018-08-17T15:10:17.686Z,1.80
2018-08-17T15:12:49.261Z,3.27
2018-08-17T15:15:21.762Z,4.15
2018-08-17T15:17:51.614Z,4.20
2018-08-17T15:20:21.976Z,4.38
2018-08-17T15:22:52.769Z,4.37
2018-08-17T15:25:24.137Z,3.02
2018-08-17T15:27:54.977Z,2.90
2018-08-17T15:30:25.689Z,4.72
2018-08-17T15:32:57.206Z,3.72
2018-08-17T15:35:27.947Z,2.10
2018-08-17T15:37:58.765Z,2.50
2018-08-17T15:40:29.932Z,2.22
2018-08-17T15:43:04.706Z,5.70
2018-08-17T15:45:34.417Z,3.50
2018-08-17T15:48:04.709Z,4.23
2018-08-17T15:50:34.545Z,4.13
2018-08-17T15:53:05.082Z,3.38
2018-08-17T15:55:35.926Z,4.87
2018-08-17T15:58:07.423Z,2.14
2018-08-17T16:00:38.561Z,5.14
2018-08-17T16:03:09.175Z,4.00
2018-08-17T16:05:40.435Z,2.12
2018-08-17T16:08:10.896Z,2.12
2018-08-17T16:10:41.882Z,2.60
2018-08-17T16:13:12.850Z,3.75
2018-08-17T16:15:43.796Z,8.43
2018-08-17T16:18:14.882Z,3.22
2018-08-17T16:20:45.835Z,4.08
2018-08-17T16:23:16.633Z,2.77
2018-08-17T16:25:48.321Z,2.90
2018-08-17T16:28:18.906Z,5.33
2018-08-17T16:30:49.834Z,4.72
2018-08-17T16:33:20.790Z,4.35
2018-08-17T16:35:51.961Z,3.22
2018-08-17T16:38:22.749Z,6.00
2018-08-17T16:40:54.409Z,4.00
2018-08-17T16:43:30.999Z,3.40
2018-08-17T16:46:01.427Z,5.75
2018-08-17T16:48:31.314Z,4.10
2018-08-17T16:51:01.663Z,2.58
2018-08-17T16:53:31.507Z,3.30
2018-08-17T16:56:05.548Z,8.87
2018-08-17T16:58:35.848Z,3.87
2018-08-17T17:01:05.738Z,6.93
2018-08-17T17:03:35.629Z,4.25
2018-08-17T17:06:06.271Z,3.57
2018-08-17T17:08:36.752Z,3.50
2018-08-17T17:11:06.718Z,5.00
2018-08-17T17:13:41.855Z,6.90
2018-08-17T17:16:12.040Z,3.42
2018-08-17T17:18:41.883Z,3.73
2018-08-17T17:21:11.749Z,5.03
2018-08-17T17:23:52.385Z,5.13
2018-08-17T17:26:22.612Z,6.22
2018-08-17T17:28:52.454Z,9.37
2018-08-17T17:31:22.267Z,3.35
2018-08-17T17:33:52.919Z,5.55
2018-08-17T17:36:22.678Z,3.77
2018-08-17T17:38:52.477Z,6.80
2018-08-17T17:41:22.790Z,5.53
2018-08-17T17:43:52.573Z,8.40
2018-08-17T17:46:22.928Z,4.67
2018-08-17T17:48:52.766Z,6.50
2018-08-17T17:51:22.660Z,3.63
2018-08-17T17:53:52.882Z,3.90
2018-08-17T17:56:24.015Z,9.98
2018-08-17T17:59:03.120Z,8.13
2018-08-17T18:01:33.217Z,11.57
2018-08-17T18:04:03.503Z,13.35
2018-08-17T18:06:33.626Z,13.43
2018-08-17T18:09:03.768Z,16.77
2018-08-17T18:11:33.656Z,18.70
2018-08-17T18:14:03.524Z,23.00
2018-08-17T18:16:33.950Z,11.50
2018-08-17T18:19:04.013Z,10.00
2018-08-17T18:21:34.685Z,9.07
2018-08-17T18:24:09.374Z,17.90
2018-08-17T18:26:41.929Z,11.20
2018-08-17T18:29:11.835Z,6.37
2018-08-17T18:31:41.803Z,10.45
2018-08-17T18:34:11.933Z,10.50
2018-08-17T18:36:42.065Z,11.10
2018-08-17T18:39:14.111Z,15.07
2018-08-17T18:41:44.404Z,14.93
2018-08-17T18:44:14.688Z,13.63
2018-08-17T18:46:44.677Z,16.73
2018-08-17T18:49:14.694Z,14.83
2018-08-17T18:51:44.836Z,12.45
2018-08-17T18:54:15.920Z,8.85
2018-08-17T18:56:46.847Z,13.32
2018-08-17T18:59:17.783Z,19.20
2018-08-17T19:01:49.310Z,11.58
2018-08-17T19:04:20.273Z,12.82
2018-08-17T19:06:51.156Z,8.70
2018-08-17T19:09:21.985Z,13.45
2018-08-17T19:11:52.880Z,13.45
2018-08-17T19:14:23.886Z,14.98
2018-08-17T19:16:55.142Z,24.20
2018-08-17T19:19:25.997Z,13.55
2018-08-17T19:21:57.608Z,16.37
2018-08-17T19:24:28.367Z,15.96
2018-08-17T19:26:59.115Z,18.27
2018-08-17T19:29:30.455Z,15.25
2018-08-17T19:32:03.068Z,12.50
2018-08-17T19:34:33.204Z,14.33
2018-08-17T19:37:03.220Z,14.47
2018-08-17T19:39:35.086Z,14.43
2018-08-17T19:42:05.468Z,12.78
2018-08-17T19:44:35.529Z,10.47
2018-08-17T19:47:06.332Z,11.94
2018-08-17T19:49:37.413Z,16.75
2018-08-17T19:52:08.791Z,15.60
2018-08-17T19:54:39.728Z,15.94
2018-08-17T19:57:09.616Z,16.15
2018-08-17T19:59:41.301Z,14.98
2018-08-17T20:02:12.025Z,16.07
2018-08-17T20:04:42.875Z,16.93
2018-08-17T20:07:13.944Z,15.58
2018-08-17T20:09:45.062Z,17.05
2018-08-17T20:12:16.284Z,15.40
2018-08-17T20:14:47.186Z,10.30
2018-08-17T20:17:18.054Z,11.93
2018-08-17T20:19:50.041Z,13.03
2018-08-17T20:22:22.872Z,16.40
2018-08-17T20:24:53.048Z,12.23
2018-08-17T20:27:23.368Z,15.75
2018-08-17T20:29:53.262Z,13.63
2018-08-17T20:32:24.042Z,23.65
2018-08-17T20:34:55.135Z,16.57
2018-08-17T20:37:25.982Z,21.37
2018-08-17T20:39:57.019Z,22.42
2018-08-17T20:42:28.403Z,25.12
2018-08-17T20:44:59.033Z,26.20
2018-08-17T20:47:30.042Z,22.22
2018-08-17T20:50:00.978Z,19.02
2018-08-17T20:52:31.839Z,20.57
2018-08-17T20:55:03.707Z,21.76
2018-08-17T20:57:33.950Z,22.17
2018-08-17T21:00:05.494Z,17.42
2018-08-17T21:02:36.069Z,16.26
2018-08-17T21:05:07.539Z,19.23
2018-08-17T21:07:38.100Z,16.82
2018-08-17T21:10:09.437Z,18.15
2018-08-17T21:12:40.256Z,19.95
2018-08-17T21:15:10.988Z,21.25
2018-08-17T21:17:41.916Z,20.72
2018-08-17T21:20:13.036Z,19.45
2018-08-17T21:22:43.955Z,18.98
2018-08-17T21:25:14.931Z,14.90
2018-08-17T21:27:45.982Z,18.37
2018-08-17T21:30:17.128Z,20.80
2018-08-17T21:32:48.080Z,18.50
2018-08-17T21:35:19.174Z,19.35
2018-08-17T21:37:50.604Z,17.52
2018-08-17T21:40:30.391Z,15.32
2018-08-17T21:43:02.487Z,17.35
2018-08-17T21:45:33.238Z,14.13
2018-08-17T21:48:03.597Z,19.43
2018-08-17T21:50:33.605Z,17.47
2018-08-17T21:53:03.513Z,17.33
2018-08-17T21:55:33.621Z,21.07
2018-08-17T21:58:04.108Z,21.50
2018-08-17T22:00:34.652Z,23.10
2018-08-17T22:03:11.319Z,26.80
2018-08-17T22:05:41.882Z,19.23
2018-08-17T22:08:11.946Z,16.80
2018-08-17T22:10:41.796Z,22.07
2018-08-17T22:13:21.697Z,18.37
2018-08-17T22:15:52.204Z,17.70
2018-08-17T22:18:22.240Z,19.20
2018-08-17T22:20:53.276Z,17.03
2018-08-17T22:23:23.514Z,19.30
2018-08-17T22:25:53.858Z,15.90
2018-08-17T22:28:23.777Z,13.10
2018-08-17T22:30:53.996Z,21.57
2018-08-17T22:33:24.329Z,19.05
2018-08-17T22:35:54.545Z,15.47
2018-08-17T22:38:27.735Z,15.87
2018-08-17T22:40:58.096Z,17.48
2018-08-17T22:43:42.374Z,17.90
2018-08-17T22:46:12.189Z,25.63
2018-08-17T22:48:42.025Z,18.87
2018-08-17T22:51:12.119Z,16.07
2018-08-17T22:53:41.999Z,15.10
2018-08-17T22:56:12.097Z,15.30
2018-08-17T22:58:51.457Z,13.73
2018-08-17T23:01:21.761Z,18.40
2018-08-17T23:03:55.488Z,15.17
2018-08-17T23:06:26.868Z,18.17
2018-08-17T23:09:00.039Z,17.03
2018-08-17T23:11:36.519Z,15.70
2018-08-17T23:14:21.333Z,18.80
2018-08-17T23:16:51.496Z,18.00
2018-08-17T23:19:21.309Z,17.33
2018-08-17T23:21:51.113Z,15.77
2018-08-17T23:24:21.118Z,19.40
2018-08-17T23:26:51.072Z,16.67
2018-08-17T23:29:21.303Z,22.83
2018-08-17T23:31:51.112Z,17.03
2018-08-17T23:34:21.069Z,17.77
2018-08-17T23:36:51.198Z,17.07
2018-08-17T23:39:21.507Z,17.37
2018-08-17T23:41:51.496Z,14.73
2018-08-17T23:44:21.306Z,17.60
2018-08-17T23:46:51.255Z,17.23
2018-08-17T23:49:21.267Z,15.03
2018-08-17T23:51:51.091Z,16.23
2018-08-17T23:54:21.081Z,15.63
2018-08-17T23:56:51.481Z,13.13
2018-08-17T23:59:21.320Z,14.33
